Douglas, North Dakota
Current Conditions -  °F | °C
As of 1:54 AM on Saturday 25 Oct 2014 (Local Time) from KMOT Reporting Station
Clear Clear  
Wind Chill: 40°   Ceiling: Unl
Heat Index: 44°   Visibility: 10mi
Dew Point: 29°   Wind: 8mph
Humidity: 55%   Direction: 250°WSW
Pressure: 30.03"   Gusts: NA
Location:  47.86°N, 101.5°W
Report Text: KMOT 250654Z AUTO 25007KT 10SM CLR 07/M02 A3003 RMK AO2 SLP172 T00671017
Loading
Personal Weather Stations






























Interactive Weather Map
Tropical Storm Tracking
New forecast layout! Learn more

10-Day Weather Forecast

Advertisements
Track Severe Weather on mobile